Time;durP1;ratioP1;P1;durP2;ratioP2;P2;SDS_P1;SDS_P2;PMS_P1;PMS_P2;Temp;Humidity;BMP_temperature;BMP_pressure;BME280_temperature;BME280_humidity;BME280_pressure;Samples;Min_cycle;Max_cycle;Signal;HPM_P1;HPM_P2
2022/08/02 00:01:20;;;;;;;;;;;26.50;99.90;;;;;;5079754;28;19947;-77
2022/08/02 00:03:46;;;;;;;;;;;26.50;99.90;;;;;;5107949;28;20191;-76
2022/08/02 00:06:15;;;;;;;;;;;26.60;99.90;;;;;;5091726;28;21422;-76
2022/08/02 00:08:40;;;;;;;;;;;26.60;99.90;;;;;;5094320;28;19965;-75
2022/08/02 00:11:06;;;;;;;;;;;26.60;99.90;;;;;;5097177;28;19912;-75
2022/08/02 00:13:31;;;;;;;;;;;26.40;99.90;;;;;;5101028;28;19976;-75
2022/08/02 00:15:57;;;;;;;;;;;26.40;99.90;;;;;;5102204;28;21602;-77
2022/08/02 00:18:22;;;;;;;;;;;26.40;99.90;;;;;;5085268;28;19970;-75
2022/08/02 00:20:48;;;;;;;;;;;26.50;99.90;;;;;;5076641;28;20373;-74
2022/08/02 00:23:14;;;;;;;;;;;26.50;99.90;;;;;;5077840;28;19916;-76
2022/08/02 00:25:39;;;;;;;;;;;26.60;99.90;;;;;;5080209;28;20325;-76
2022/08/02 00:28:05;;;;;;;;;;;26.60;99.90;;;;;;5076782;28;19965;-76
2022/08/02 00:30:30;;;;;;;;;;;26.60;99.90;;;;;;5080915;28;19922;-75
2022/08/02 00:32:56;;;;;;;;;;;26.50;99.90;;;;;;5081171;28;19912;-76
2022/08/02 00:35:22;;;;;;;;;;;26.30;99.90;;;;;;5072984;28;19912;-76
2022/08/02 00:37:47;;;;;;;;;;;26.20;99.90;;;;;;5079904;28;19916;-76
2022/08/02 00:40:13;;;;;;;;;;;26.10;99.90;;;;;;5076103;28;19929;-76
2022/08/02 00:42:38;;;;;;;;;;;26.00;99.90;;;;;;5078819;28;19967;-77
2022/08/02 00:45:04;;;;;;;;;;;26.10;99.90;;;;;;5077443;28;19921;-76
2022/08/02 00:47:30;;;;;;;;;;;26.00;99.90;;;;;;5080256;28;19912;-78
2022/08/02 00:49:56;;;;;;;;;;;25.60;99.90;;;;;;5080766;28;19920;-76
2022/08/02 00:52:22;;;;;;;;;;;25.10;99.90;;;;;;5078550;28;19935;-76
2022/08/02 00:54:48;;;;;;;;;;;24.70;99.90;;;;;;5077068;28;19920;-76
2022/08/02 00:57:13;;;;;;;;;;;24.40;99.90;;;;;;5077678;28;20207;-75
2022/08/02 00:59:40;;;;;;;;;;;24.40;99.90;;;;;;5081597;28;19965;-76
2022/08/02 01:02:06;;;;;;;;;;;24.40;99.90;;;;;;5075545;28;19959;-75
2022/08/02 01:04:32;;;;;;;;;;;24.50;99.90;;;;;;5079565;28;19913;-76
2022/08/02 01:06:58;;;;;;;;;;;24.60;99.90;;;;;;5078006;28;19912;-76
2022/08/02 01:09:24;;;;;;;;;;;24.60;99.90;;;;;;5099619;28;19912;-76
2022/08/02 01:11:50;;;;;;;;;;;24.60;99.90;;;;;;5082921;28;19923;-76
2022/08/02 01:14:16;;;;;;;;;;;24.60;99.90;;;;;;5080142;28;20029;-76
2022/08/02 01:16:50;;;;;;;;;;;24.00;99.90;;;;;;5077876;28;19916;-76
2022/08/02 01:19:22;;;;;;;;;;;23.40;99.90;;;;;;5087881;28;19911;-77
2022/08/02 01:22:04;;;;;;;;;;;23.00;99.90;;;;;;5097854;28;20441;-77
2022/08/02 01:24:57;;;;;;;;;;;22.80;99.90;;;;;;5076604;28;20443;-76
2022/08/02 01:27:22;;;;;;;;;;;22.70;99.90;;;;;;5080808;28;19912;-76
2022/08/02 01:29:50;;;;;;;;;;;22.70;99.90;;;;;;5083392;28;19999;-76
2022/08/02 01:32:22;;;;;;;;;;;22.80;99.90;;;;;;5083743;28;19966;-78
2022/08/02 01:34:54;;;;;;;;;;;22.80;99.90;;;;;;5085399;28;19927;-77
2022/08/02 01:37:33;;;;;;;;;;;22.90;99.90;;;;;;5082698;28;20003;-78
2022/08/02 01:40:09;;;;;;;;;;;22.90;99.90;;;;;;5109745;28;20319;-76
2022/08/02 01:42:36;;;;;;;;;;;22.90;99.90;;;;;;5074198;28;19919;-75
2022/08/02 01:45:02;;;;;;;;;;;23.00;99.90;;;;;;5081151;28;20050;-76
2022/08/02 01:47:29;;;;;;;;;;;23.00;99.90;;;;;;5080865;28;20372;-75
2022/08/02 01:49:57;;;;;;;;;;;23.00;99.90;;;;;;5081533;28;19921;-75
2022/08/02 01:52:25;;;;;;;;;;;22.90;99.90;;;;;;5080125;28;20345;-76
2022/08/02 01:55:08;;;;;;;;;;;22.80;99.90;;;;;;5080752;28;20007;-77
2022/08/02 01:57:44;;;;;;;;;;;22.40;99.90;;;;;;5080348;28;20023;-77
2022/08/02 02:00:10;;;;;;;;;;;22.10;99.90;;;;;;5082305;28;20016;-76
2022/08/02 02:02:41;;;;;;;;;;;21.90;99.90;;;;;;5080103;28;19916;-77
2022/08/02 02:05:10;;;;;;;;;;;21.90;99.90;;;;;;5082963;28;20979;-78
2022/08/02 02:07:36;;;;;;;;;;;21.80;99.90;;;;;;5083818;28;20234;-77
2022/08/02 02:10:03;;;;;;;;;;;21.80;99.90;;;;;;5089341;28;20365;-77
2022/08/02 02:12:30;;;;;;;;;;;21.90;99.90;;;;;;5084278;28;20003;-76
2022/08/02 02:14:56;;;;;;;;;;;22.10;99.90;;;;;;5083506;28;19993;-77
2022/08/02 02:17:22;;;;;;;;;;;22.10;99.90;;;;;;5081995;28;20396;-76
2022/08/02 02:19:48;;;;;;;;;;;22.10;99.90;;;;;;5084585;28;19939;-77
2022/08/02 02:22:14;;;;;;;;;;;22.10;99.90;;;;;;5080954;28;19924;-77
2022/08/02 02:24:39;;;;;;;;;;;22.10;99.90;;;;;;5080602;28;20022;-76
2022/08/02 02:27:06;;;;;;;;;;;22.20;99.90;;;;;;5085329;28;19916;-75
2022/08/02 02:29:33;;;;;;;;;;;22.10;99.90;;;;;;5104530;28;20427;-76
2022/08/02 02:31:59;;;;;;;;;;;22.00;99.90;;;;;;5080289;28;19920;-75
2022/08/02 02:34:30;;;;;;;;;;;22.00;99.90;;;;;;5082258;28;19920;-77
2022/08/02 02:36:57;;;;;;;;;;;21.80;99.90;;;;;;5083223;28;19912;-75
2022/08/02 02:39:24;;;;;;;;;;;21.60;99.90;;;;;;5079529;28;20310;-75
2022/08/02 02:41:51;;;;;;;;;;;21.50;99.90;;;;;;5080474;28;19924;-75
2022/08/02 02:44:18;;;;;;;;;;;21.30;99.90;;;;;;5080555;28;19927;-77
2022/08/02 02:46:44;;;;;;;;;;;21.30;99.90;;;;;;5081836;28;19934;-76
2022/08/02 02:49:10;;;;;;;;;;;21.40;99.90;;;;;;5086994;28;19912;-76
2022/08/02 02:51:38;;;;;;;;;;;21.50;99.90;;;;;;5088157;28;20277;-76
2022/08/02 02:54:04;;;;;;;;;;;21.60;99.90;;;;;;5086104;28;19924;-75
2022/08/02 02:56:30;;;;;;;;;;;21.80;99.90;;;;;;5086070;28;19967;-76
2022/08/02 02:58:56;;;;;;;;;;;22.20;99.90;;;;;;5081382;28;19974;-76
2022/08/02 03:01:29;;;;;;;;;;;22.50;99.90;;;;;;5082478;28;19920;-76
2022/08/02 03:04:03;;;;;;;;;;;22.60;99.90;;;;;;5082009;28;19912;-75
2022/08/02 03:06:29;;;;;;;;;;;22.80;99.90;;;;;;5079335;28;19920;-75
2022/08/02 03:08:55;;;;;;;;;;;23.00;99.90;;;;;;5081904;28;20012;-75
2022/08/02 03:11:21;;;;;;;;;;;23.20;99.90;;;;;;5085533;28;19913;-76
2022/08/02 03:13:47;;;;;;;;;;;23.20;99.90;;;;;;5083537;28;19912;-76
2022/08/02 03:16:13;;;;;;;;;;;23.40;99.90;;;;;;5083297;28;19928;-79
2022/08/02 03:18:40;;;;;;;;;;;23.50;99.90;;;;;;5080928;28;19920;-75
2022/08/02 03:21:06;;;;;;;;;;;23.60;99.90;;;;;;5082777;28;19912;-76
2022/08/02 03:23:32;;;;;;;;;;;23.70;99.90;;;;;;5083083;28;19963;-75
2022/08/02 03:25:58;;;;;;;;;;;23.80;99.90;;;;;;5080086;28;20364;-75
2022/08/02 03:28:24;;;;;;;;;;;23.80;99.90;;;;;;5081621;28;19924;-76
2022/08/02 03:30:50;;;;;;;;;;;23.70;99.90;;;;;;5080535;28;20249;-75
2022/08/02 03:33:16;;;;;;;;;;;23.60;99.90;;;;;;5086557;28;19920;-75
2022/08/02 03:35:42;;;;;;;;;;;23.50;99.90;;;;;;5079668;28;19919;-75
2022/08/02 03:38:09;;;;;;;;;;;23.40;99.90;;;;;;5082315;28;19924;-76
2022/08/02 03:40:35;;;;;;;;;;;23.30;99.90;;;;;;5079264;28;20301;-75
2022/08/02 03:43:01;;;;;;;;;;;23.50;99.90;;;;;;5079668;28;19912;-75
2022/08/02 03:45:27;;;;;;;;;;;23.50;99.90;;;;;;5095798;28;20412;-75
2022/08/02 03:47:52;;;;;;;;;;;23.60;99.90;;;;;;5095218;28;19919;-75
2022/08/02 03:50:18;;;;;;;;;;;23.40;99.90;;;;;;5082403;28;19991;-75
2022/08/02 03:52:44;;;;;;;;;;;23.40;99.90;;;;;;5065317;28;19912;-75
2022/08/02 03:55:10;;;;;;;;;;;23.40;99.90;;;;;;5078888;28;19983;-75
2022/08/02 03:57:42;;;;;;;;;;;23.30;99.90;;;;;;5061388;28;19921;-75
2022/08/02 04:00:09;;;;;;;;;;;23.30;99.90;;;;;;5080172;28;19923;-75
2022/08/02 04:02:35;;;;;;;;;;;23.30;99.90;;;;;;5067516;28;19920;-75
2022/08/02 04:05:04;;;;;;;;;;;23.30;99.90;;;;;;5082350;28;20343;-76
2022/08/02 04:07:30;;;;;;;;;;;23.30;99.90;;;;;;5081659;28;19935;-76
2022/08/02 04:09:55;;;;;;;;;;;23.40;99.90;;;;;;5083355;28;20346;-76
2022/08/02 04:12:21;;;;;;;;;;;23.30;99.90;;;;;;5081492;28;19919;-76
2022/08/02 04:14:46;;;;;;;;;;;23.30;99.90;;;;;;5079230;28;19912;-76
2022/08/02 04:17:13;;;;;;;;;;;23.40;99.90;;;;;;5076072;28;19943;-76
2022/08/02 04:19:41;;;;;;;;;;;23.50;99.90;;;;;;5078248;28;19916;-75
2022/08/02 04:22:10;;;;;;;;;;;23.50;99.90;;;;;;5078677;28;20415;-76
2022/08/02 04:24:40;;;;;;;;;;;23.50;99.90;;;;;;5076582;28;19915;-75
2022/08/02 04:27:06;;;;;;;;;;;23.60;99.90;;;;;;5064845;28;19957;-75
2022/08/02 04:29:32;;;;;;;;;;;23.60;99.90;;;;;;5091539;28;20469;-75
2022/08/02 04:31:58;;;;;;;;;;;23.70;99.90;;;;;;5078811;28;19912;-75
2022/08/02 04:34:23;;;;;;;;;;;23.50;99.90;;;;;;5079401;28;20288;-76
2022/08/02 04:36:49;;;;;;;;;;;23.50;99.90;;;;;;5077837;28;19912;-75
2022/08/02 04:39:15;;;;;;;;;;;23.50;99.90;;;;;;5081010;28;19991;-77
2022/08/02 04:41:45;;;;;;;;;;;23.50;99.90;;;;;;5054048;28;19919;-76
2022/08/02 04:44:11;;;;;;;;;;;23.50;99.90;;;;;;5080053;28;19918;-75
2022/08/02 04:46:37;;;;;;;;;;;23.70;99.90;;;;;;5076809;28;19923;-75
2022/08/02 04:49:02;;;;;;;;;;;23.80;99.90;;;;;;5080019;28;19912;-74
2022/08/02 04:51:28;;;;;;;;;;;23.70;99.90;;;;;;5097441;28;19920;-74
2022/08/02 04:53:53;;;;;;;;;;;23.80;99.90;;;;;;5096555;28;19919;-75
2022/08/02 04:56:19;;;;;;;;;;;23.90;99.90;;;;;;5097356;28;19912;-76
2022/08/02 04:58:45;;;;;;;;;;;23.90;99.90;;;;;;5096341;28;20042;-75
2022/08/02 05:01:10;;;;;;;;;;;23.90;99.90;;;;;;5096976;28;19916;-76
2022/08/02 05:03:36;;;;;;;;;;;24.00;99.90;;;;;;5092587;28;19913;-75
2022/08/02 05:06:02;;;;;;;;;;;24.00;99.90;;;;;;5083744;28;19917;-75
2022/08/02 05:08:28;;;;;;;;;;;24.10;99.90;;;;;;5081739;28;19988;-75
2022/08/02 05:10:53;;;;;;;;;;;24.10;99.90;;;;;;5084759;28;19917;-76
2022/08/02 05:13:19;;;;;;;;;;;24.20;99.90;;;;;;5084562;28;19924;-76
2022/08/02 05:15:47;;;;;;;;;;;24.30;99.90;;;;;;5082922;28;19955;-75
2022/08/02 05:18:12;;;;;;;;;;;24.30;99.90;;;;;;5083784;28;19920;-76
2022/08/02 05:20:38;;;;;;;;;;;24.20;99.90;;;;;;5069239;28;19916;-76
2022/08/02 05:23:03;;;;;;;;;;;24.10;99.90;;;;;;5079109;28;20000;-76
2022/08/02 05:25:29;;;;;;;;;;;24.00;99.90;;;;;;5079656;28;20011;-76
2022/08/02 05:27:55;;;;;;;;;;;24.00;99.90;;;;;;5082346;28;20475;-76
2022/08/02 05:30:20;;;;;;;;;;;23.90;99.90;;;;;;5083815;28;20442;-76
2022/08/02 05:32:47;;;;;;;;;;;23.80;99.90;;;;;;5062820;28;20014;-76
2022/08/02 05:35:15;;;;;;;;;;;24.00;99.90;;;;;;5080291;28;21784;-76
2022/08/02 05:37:41;;;;;;;;;;;24.10;99.90;;;;;;5082598;28;19913;-75
2022/08/02 05:40:07;;;;;;;;;;;24.20;99.90;;;;;;5081112;28;20014;-75
2022/08/02 05:42:32;;;;;;;;;;;24.30;99.90;;;;;;5082125;28;19916;-75
2022/08/02 05:44:58;;;;;;;;;;;24.30;99.90;;;;;;5083276;28;19916;-75
2022/08/02 05:47:24;;;;;;;;;;;24.40;99.90;;;;;;5068164;28;19985;-76
2022/08/02 05:49:50;;;;;;;;;;;24.50;99.90;;;;;;5066492;28;19981;-75
2022/08/02 05:52:19;;;;;;;;;;;24.60;99.90;;;;;;5083779;28;19916;-75
2022/08/02 05:54:53;;;;;;;;;;;24.60;99.90;;;;;;5084498;28;20051;-75
2022/08/02 05:57:26;;;;;;;;;;;24.60;99.90;;;;;;5081910;28;20005;-76
2022/08/02 06:00:01;;;;;;;;;;;24.70;99.90;;;;;;5082779;28;20373;-76
2022/08/02 06:02:42;;;;;;;;;;;24.70;99.90;;;;;;5084250;28;19979;-75
2022/08/02 06:05:18;;;;;;;;;;;24.70;99.90;;;;;;5079807;28;19924;-75
2022/08/02 06:07:44;;;;;;;;;;;24.70;99.90;;;;;;5095739;27;19924;-76
2022/08/02 06:10:14;;;;;;;;;;;24.70;99.90;;;;;;5077613;28;19993;-76
2022/08/02 06:12:50;;;;;;;;;;;24.80;99.90;;;;;;5083743;28;19967;-76
2022/08/02 06:15:16;;;;;;;;;;;24.80;99.90;;;;;;5090024;28;19911;-75
2022/08/02 06:17:43;;;;;;;;;;;25.00;99.90;;;;;;5085350;28;19951;-76
2022/08/02 06:20:12;;;;;;;;;;;25.20;99.90;;;;;;5087375;28;19919;-76
2022/08/02 06:22:42;;;;;;;;;;;25.40;99.90;;;;;;5081507;28;19916;-76
2022/08/02 06:25:08;;;;;;;;;;;25.50;99.90;;;;;;5082776;28;20535;-75
2022/08/02 06:27:34;;;;;;;;;;;25.60;99.90;;;;;;5081080;28;19974;-76
2022/08/02 06:30:00;;;;;;;;;;;25.70;99.90;;;;;;5084574;28;19920;-76
2022/08/02 06:32:26;;;;;;;;;;;25.70;99.90;;;;;;5081242;28;20440;-75
2022/08/02 06:34:51;;;;;;;;;;;25.70;99.90;;;;;;5099857;28;19991;-64
2022/08/02 06:37:17;;;;;;;;;;;25.80;99.90;;;;;;5092103;28;20293;-64
2022/08/02 06:39:50;;;;;;;;;;;25.80;99.90;;;;;;5092423;28;19912;-64
2022/08/02 06:42:18;;;;;;;;;;;25.80;99.90;;;;;;5091750;28;19908;-63
2022/08/02 06:44:44;;;;;;;;;;;25.80;99.90;;;;;;5092615;28;20377;-64
2022/08/02 06:47:09;;;;;;;;;;;25.80;99.90;;;;;;5093387;28;19947;-65
2022/08/02 06:49:35;;;;;;;;;;;25.90;99.90;;;;;;5093102;28;19912;-64
2022/08/02 06:52:01;;;;;;;;;;;26.10;99.90;;;;;;5075207;28;19944;-65
2022/08/02 06:54:27;;;;;;;;;;;26.20;99.90;;;;;;5092795;28;19912;-65
2022/08/02 06:56:53;;;;;;;;;;;26.30;99.90;;;;;;5093312;28;20057;-65
2022/08/02 06:59:18;;;;;;;;;;;26.20;99.90;;;;;;5092387;28;20238;-64
2022/08/02 07:01:44;;;;;;;;;;;26.20;99.90;;;;;;5093099;28;19970;-64
2022/08/02 07:04:09;;;;;;;;;;;26.10;99.90;;;;;;5092461;28;19908;-68
2022/08/02 07:06:35;;;;;;;;;;;26.20;99.90;;;;;;5092379;28;19912;-64
2022/08/02 07:09:00;;;;;;;;;;;26.20;99.90;;;;;;5074652;28;19966;-64
2022/08/02 07:11:26;;;;;;;;;;;26.10;99.90;;;;;;5092882;28;19926;-65
2022/08/02 07:13:51;;;;;;;;;;;25.90;99.90;;;;;;5093142;28;20376;-64
2022/08/02 07:16:17;;;;;;;;;;;25.90;99.90;;;;;;5079256;28;19920;-64
2022/08/02 07:18:43;;;;;;;;;;;26.00;99.90;;;;;;5082134;28;19916;-65
2022/08/02 07:21:08;;;;;;;;;;;26.10;99.90;;;;;;5079413;28;19920;-65
2022/08/02 07:23:34;;;;;;;;;;;26.10;99.90;;;;;;5078873;28;20001;-70
2022/08/02 07:26:00;;;;;;;;;;;25.90;99.90;;;;;;5079082;28;19917;-71
2022/08/02 07:28:25;;;;;;;;;;;25.80;99.90;;;;;;5079030;28;19938;-69
2022/08/02 07:30:51;;;;;;;;;;;25.70;99.90;;;;;;5078200;28;20360;-70
2022/08/02 07:33:17;;;;;;;;;;;25.90;99.90;;;;;;5077094;28;19951;-68
2022/08/02 07:35:50;;;;;;;;;;;26.10;99.90;;;;;;5079311;28;19982;-69
2022/08/02 07:38:15;;;;;;;;;;;26.10;99.90;;;;;;5081499;28;20338;-70
2022/08/02 07:40:41;;;;;;;;;;;26.00;99.90;;;;;;5077743;28;20059;-71
2022/08/02 07:43:06;;;;;;;;;;;25.80;99.90;;;;;;5078484;28;19916;-70
2022/08/02 07:45:32;;;;;;;;;;;25.60;99.90;;;;;;5079436;28;19920;-68
2022/08/02 07:47:58;;;;;;;;;;;25.70;99.90;;;;;;5077221;28;20365;-68
2022/08/02 07:50:24;;;;;;;;;;;25.80;99.90;;;;;;5076408;28;19924;-69
2022/08/02 07:52:49;;;;;;;;;;;25.90;99.90;;;;;;5078191;28;20022;-69
2022/08/02 07:55:16;;;;;;;;;;;25.90;99.90;;;;;;5077457;28;19916;-70
2022/08/02 07:57:42;;;;;;;;;;;25.80;99.90;;;;;;5072857;28;19924;-75
2022/08/02 08:00:08;;;;;;;;;;;25.80;99.90;;;;;;5076780;28;19966;-71
2022/08/02 08:02:34;;;;;;;;;;;25.70;99.90;;;;;;5061949;28;19927;-71
2022/08/02 08:04:59;;;;;;;;;;;25.80;99.90;;;;;;5076390;28;20270;-70
2022/08/02 08:07:25;;;;;;;;;;;25.80;99.90;;;;;;5077515;28;19916;-71
2022/08/02 08:09:51;;;;;;;;;;;26.20;99.90;;;;;;5078524;28;20094;-73
2022/08/02 08:12:16;;;;;;;;;;;26.60;99.90;;;;;;5064755;28;19966;-69
2022/08/02 08:14:42;;;;;;;;;;;26.80;99.90;;;;;;5074037;28;19966;-71
2022/08/02 08:17:08;;;;;;;;;;;26.80;99.90;;;;;;5079296;28;20376;-71
2022/08/02 08:19:34;;;;;;;;;;;26.90;99.90;;;;;;5074331;28;19959;-75
2022/08/02 08:22:00;;;;;;;;;;;26.70;99.90;;;;;;5078557;28;20004;-69
2022/08/02 08:24:26;;;;;;;;;;;26.70;99.90;;;;;;5078106;28;19916;-76
2022/08/02 08:26:52;;;;;;;;;;;26.80;99.90;;;;;;5078760;28;19923;-71
2022/08/02 08:29:18;;;;;;;;;;;26.80;99.90;;;;;;5102763;28;20292;-69
2022/08/02 08:31:43;;;;;;;;;;;27.00;99.90;;;;;;5081604;28;20254;-69
2022/08/02 08:34:09;;;;;;;;;;;27.10;99.90;;;;;;5078484;28;19921;-71
2022/08/02 08:36:34;;;;;;;;;;;27.20;99.90;;;;;;5058300;28;20285;-72
2022/08/02 08:39:00;;;;;;;;;;;27.10;99.90;;;;;;5074612;28;19938;-71
2022/08/02 08:41:26;;;;;;;;;;;27.00;99.90;;;;;;5071867;28;20066;-70
2022/08/02 08:43:51;;;;;;;;;;;27.00;99.90;;;;;;5077804;28;20293;-68
2022/08/02 08:46:21;;;;;;;;;;;26.90;99.90;;;;;;5079808;28;20292;-69
2022/08/02 08:48:48;;;;;;;;;;;26.80;99.90;;;;;;5075741;28;19958;-69
2022/08/02 08:51:15;;;;;;;;;;;26.80;99.90;;;;;;5084448;28;19920;-69
2022/08/02 08:53:45;;;;;;;;;;;26.80;99.90;;;;;;5076237;28;20362;-69
2022/08/02 08:56:12;;;;;;;;;;;26.80;99.90;;;;;;5077774;28;19967;-69
2022/08/02 08:58:39;;;;;;;;;;;27.00;99.90;;;;;;5073881;28;20413;-69
2022/08/02 09:01:05;;;;;;;;;;;27.10;99.90;;;;;;5075337;28;19912;-70
2022/08/02 09:03:30;;;;;;;;;;;27.10;99.90;;;;;;5078353;28;19923;-70
2022/08/02 09:05:56;;;;;;;;;;;27.20;99.90;;;;;;5079087;28;19916;-69
2022/08/02 09:08:22;;;;;;;;;;;27.30;99.90;;;;;;5072599;28;20444;-70
2022/08/02 09:10:48;;;;;;;;;;;27.30;99.90;;;;;;5084690;28;20003;-70
2022/08/02 09:13:19;;;;;;;;;;;27.30;99.90;;;;;;5078566;28;20030;-70
2022/08/02 09:15:51;;;;;;;;;;;27.30;99.90;;;;;;5085837;28;19915;-70
2022/08/02 09:18:17;;;;;;;;;;;27.30;99.90;;;;;;5085116;28;20381;-69
2022/08/02 09:20:59;;;;;;;;;;;27.40;99.90;;;;;;5098496;28;19955;-70
2022/08/02 09:23:25;;;;;;;;;;;27.50;99.90;;;;;;5086204;28;19924;-70
2022/08/02 09:25:58;;;;;;;;;;;27.60;99.90;;;;;;5096504;28;19927;-70
2022/08/02 09:28:31;;;;;;;;;;;27.70;99.90;;;;;;5088147;28;19923;-69
2022/08/02 09:31:01;;;;;;;;;;;27.90;99.90;;;;;;5087186;28;19975;-71
2022/08/02 09:33:27;;;;;;;;;;;28.00;99.90;;;;;;5094350;28;19919;-69
2022/08/02 09:36:11;;;;;;;;;;;28.00;99.90;;;;;;5088734;28;19912;-69
2022/08/02 09:38:38;;;;;;;;;;;28.10;99.90;;;;;;5091350;28;19919;-69
2022/08/02 09:41:04;;;;;;;;;;;28.10;99.90;;;;;;5093103;28;19920;-69
2022/08/02 09:43:33;;;;;;;;;;;28.20;99.90;;;;;;5098458;28;20384;-70
2022/08/02 09:46:08;;;;;;;;;;;28.30;99.90;;;;;;5095983;28;19916;-68
2022/08/02 09:48:33;;;;;;;;;;;28.30;99.90;;;;;;5098437;28;20488;-69
2022/08/02 09:50:59;;;;;;;;;;;28.30;99.90;;;;;;5098938;28;20141;-71
2022/08/02 09:53:24;;;;;;;;;;;28.30;99.90;;;;;;5095046;28;19916;-69
2022/08/02 09:55:54;;;;;;;;;;;28.20;99.90;;;;;;5089836;28;20019;-70
2022/08/02 09:58:20;;;;;;;;;;;28.20;99.90;;;;;;5092645;28;19947;-70
2022/08/02 10:00:57;;;;;;;;;;;28.30;99.90;;;;;;5093965;28;19908;-69
2022/08/02 10:03:23;;;;;;;;;;;28.30;99.90;;;;;;5093865;28;20277;-71
2022/08/02 10:05:53;;;;;;;;;;;28.40;99.90;;;;;;5090364;28;19928;-73
2022/08/02 10:08:19;;;;;;;;;;;28.50;99.90;;;;;;5098726;28;20268;-70
2022/08/02 10:10:45;;;;;;;;;;;28.60;99.90;;;;;;5087480;28;20014;-71
2022/08/02 10:13:10;;;;;;;;;;;28.50;99.90;;;;;;5095419;28;19916;-72
2022/08/02 10:15:37;;;;;;;;;;;28.20;99.90;;;;;;5118613;27;19912;-72
2022/08/02 10:18:04;;;;;;;;;;;27.80;99.90;;;;;;5104425;28;19919;-71
2022/08/02 10:20:31;;;;;;;;;;;27.60;99.90;;;;;;5099391;28;19995;-73
2022/08/02 10:22:58;;;;;;;;;;;27.70;99.90;;;;;;5088335;28;20446;-74
2022/08/02 10:25:24;;;;;;;;;;;27.80;99.90;;;;;;5094409;28;19912;-71
2022/08/02 10:27:50;;;;;;;;;;;28.10;99.90;;;;;;5084210;28;20350;-71
2022/08/02 10:30:15;;;;;;;;;;;28.40;99.90;;;;;;5073833;28;19965;-70
2022/08/02 10:32:44;;;;;;;;;;;28.50;99.90;;;;;;5094140;28;20537;-70
2022/08/02 10:35:12;;;;;;;;;;;28.60;99.90;;;;;;5094602;28;19957;-75
2022/08/02 10:37:38;;;;;;;;;;;28.80;99.90;;;;;;5076104;28;19957;-75
2022/08/02 10:40:04;;;;;;;;;;;28.90;99.90;;;;;;5095677;28;19965;-72
2022/08/02 10:42:44;;;;;;;;;;;29.00;99.90;;;;;;5091002;28;19920;-71
2022/08/02 10:45:10;;;;;;;;;;;29.00;99.90;;;;;;5091688;28;20332;-71
2022/08/02 10:47:36;;;;;;;;;;;29.00;99.90;;;;;;5092845;28;20407;-72
2022/08/02 10:50:02;;;;;;;;;;;29.10;99.90;;;;;;5092262;28;19912;-70
2022/08/02 10:52:28;;;;;;;;;;;29.30;99.90;;;;;;5093392;28;19915;-70
2022/08/02 10:55:02;;;;;;;;;;;29.40;99.90;;;;;;5091186;28;20575;-70
2022/08/02 10:57:32;;;;;;;;;;;29.20;99.90;;;;;;5098071;28;20311;-71
2022/08/02 11:00:11;;;;;;;;;;;29.00;99.90;;;;;;5078887;28;20011;-69
2022/08/02 11:02:38;;;;;;;;;;;29.00;99.90;;;;;;5079048;28;19919;-70
2022/08/02 11:05:08;;;;;;;;;;;29.00;99.90;;;;;;5087618;28;20001;-70
2022/08/02 11:07:35;;;;;;;;;;;28.90;99.90;;;;;;5098464;28;19922;-69
2022/08/02 11:10:20;;;;;;;;;;;28.90;99.90;;;;;;5107388;28;19916;-71
2022/08/02 11:13:15;;;;;;;;;;;29.00;99.90;;;;;;5096991;28;19938;-71
2022/08/02 11:15:50;;;;;;;;;;;29.10;99.90;;;;;;5083232;28;19912;-74
2022/08/02 11:18:16;;;;;;;;;;;29.30;99.90;;;;;;5088261;28;19916;-72
2022/08/02 11:20:42;;;;;;;;;;;29.30;99.90;;;;;;5098752;28;19912;-70
2022/08/02 11:23:26;;;;;;;;;;;29.40;99.90;;;;;;5081708;28;20339;-65
2022/08/02 11:25:52;;;;;;;;;;;29.30;99.90;;;;;;5087205;28;19922;-67
2022/08/02 11:28:17;;;;;;;;;;;28.80;99.90;;;;;;5096929;28;20284;-65
2022/08/02 11:30:43;;;;;;;;;;;28.40;99.90;;;;;;5096070;28;19914;-67
2022/08/02 11:33:08;;;;;;;;;;;27.90;99.90;;;;;;5092842;28;20520;-69
2022/08/02 11:35:37;;;;;;;;;;;27.80;99.90;;;;;;5091528;28;19912;-68
2022/08/02 11:38:14;;;;;;;;;;;27.90;99.90;;;;;;5074854;28;19919;-67
2022/08/02 11:40:40;;;;;;;;;;;27.60;99.90;;;;;;5090081;28;19912;-65
2022/08/02 11:43:14;;;;;;;;;;;27.50;99.90;;;;;;5090622;28;20261;-65
2022/08/02 11:45:40;;;;;;;;;;;27.50;99.90;;;;;;5108334;28;19915;-63
2022/08/02 11:48:05;;;;;;;;;;;27.60;99.90;;;;;;5092722;28;19908;-65
2022/08/02 11:50:31;;;;;;;;;;;27.50;99.90;;;;;;5092091;28;20385;-65
2022/08/02 11:52:57;;;;;;;;;;;27.70;99.90;;;;;;5095652;28;19920;-64
2022/08/02 11:55:26;;;;;;;;;;;27.70;99.90;;;;;;5091694;28;19908;-66
2022/08/02 11:57:59;;;;;;;;;;;27.80;99.90;;;;;;5090398;28;20305;-68
2022/08/02 12:00:25;;;;;;;;;;;27.80;99.90;;;;;;5086706;28;19999;-65
2022/08/02 12:02:50;;;;;;;;;;;27.60;99.90;;;;;;5096733;28;19975;-67
2022/08/02 12:05:21;;;;;;;;;;;27.40;99.90;;;;;;5090296;28;19994;-63
2022/08/02 12:07:47;;;;;;;;;;;27.40;99.90;;;;;;5091604;28;19908;-66
2022/08/02 12:10:14;;;;;;;;;;;27.50;99.90;;;;;;5092739;28;19919;-65
2022/08/02 12:12:50;;;;;;;;;;;27.60;99.90;;;;;;5096016;28;19916;-65
2022/08/02 12:15:28;;;;;;;;;;;27.50;99.90;;;;;;5081664;28;20361;-66
2022/08/02 12:20:37;;;;;;;;;;;27.40;99.90;;;;;;5086815;28;19919;-67
2022/08/02 12:23:03;;;;;;;;;;;27.40;99.90;;;;;;5087323;28;19924;-66
2022/08/02 12:25:32;;;;;;;;;;;27.60;99.90;;;;;;5089432;28;19967;-65
2022/08/02 12:28:24;;;;;;;;;;;27.60;99.90;;;;;;5104825;28;19912;-66
2022/08/02 12:30:51;;;;;;;;;;;27.50;99.90;;;;;;5086199;28;19912;-68
2022/08/02 12:33:17;;;;;;;;;;;27.60;99.90;;;;;;5089000;28;19958;-65
2022/08/02 12:35:42;;;;;;;;;;;27.70;99.90;;;;;;5086263;28;20381;-66
2022/08/02 12:38:09;;;;;;;;;;;27.90;99.90;;;;;;5069174;28;19920;-67
2022/08/02 12:40:35;;;;;;;;;;;28.10;99.90;;;;;;5105948;28;20305;-66
2022/08/02 12:43:02;;;;;;;;;;;28.20;99.90;;;;;;5108603;28;19928;-64
2022/08/02 12:45:29;;;;;;;;;;;28.10;99.90;;;;;;5092822;28;19995;-67
2022/08/02 12:47:56;;;;;;;;;;;28.00;99.90;;;;;;5090937;28;19912;-66
2022/08/02 12:50:33;;;;;;;;;;;28.20;99.90;;;;;;5090864;28;19912;-68
2022/08/02 12:53:03;;;;;;;;;;;28.20;99.90;;;;;;5093538;28;20006;-66
2022/08/02 12:55:29;;;;;;;;;;;28.30;99.90;;;;;;5087304;28;19990;-67
2022/08/02 12:57:57;;;;;;;;;;;28.30;99.90;;;;;;5090496;28;19947;-65
2022/08/02 13:00:24;;;;;;;;;;;28.20;99.90;;;;;;5092464;28;20578;-66
2022/08/02 13:02:49;;;;;;;;;;;28.50;99.90;;;;;;5089668;28;19912;-66
2022/08/02 13:05:15;;;;;;;;;;;28.50;99.90;;;;;;5089087;28;19926;-67
2022/08/02 13:07:41;;;;;;;;;;;28.60;99.90;;;;;;5089371;28;19924;-65
2022/08/02 13:10:06;;;;;;;;;;;28.60;99.90;;;;;;5094809;28;19944;-65
2022/08/02 13:12:33;;;;;;;;;;;28.50;99.90;;;;;;5087233;28;20003;-67
2022/08/02 13:14:58;;;;;;;;;;;28.60;99.90;;;;;;5089912;28;19913;-66
2022/08/02 13:17:24;;;;;;;;;;;28.60;99.90;;;;;;5090078;28;20300;-65
2022/08/02 13:19:49;;;;;;;;;;;28.60;99.90;;;;;;5092447;28;19922;-66
2022/08/02 13:22:16;;;;;;;;;;;28.70;99.90;;;;;;5104749;28;19944;-66
2022/08/02 13:24:42;;;;;;;;;;;28.60;99.90;;;;;;5094843;28;20301;-66
2022/08/02 13:27:08;;;;;;;;;;;28.60;99.90;;;;;;5093828;28;20007;-66
2022/08/02 13:29:34;;;;;;;;;;;28.80;99.90;;;;;;5078376;28;20331;-65
2022/08/02 13:31:59;;;;;;;;;;;28.80;99.90;;;;;;5114246;28;20393;-67
2022/08/02 13:34:25;;;;;;;;;;;28.90;99.90;;;;;;5104024;28;19916;-68
2022/08/02 13:36:50;;;;;;;;;;;28.90;99.90;;;;;;5096143;28;19923;-65
2022/08/02 13:39:16;;;;;;;;;;;29.00;99.90;;;;;;5097539;28;19908;-64
2022/08/02 13:41:41;;;;;;;;;;;29.20;99.90;;;;;;5107037;28;19919;-65
2022/08/02 13:44:07;;;;;;;;;;;29.30;99.90;;;;;;5095744;28;21296;-65
2022/08/02 13:46:34;;;;;;;;;;;29.50;99.90;;;;;;5093108;28;19974;-65
2022/08/02 13:48:59;;;;;;;;;;;29.60;99.90;;;;;;5094613;28;19908;-64
2022/08/02 13:51:25;;;;;;;;;;;29.40;99.90;;;;;;5105000;28;19946;-64
2022/08/02 13:53:50;;;;;;;;;;;29.30;99.90;;;;;;5113245;28;19911;-66
2022/08/02 13:56:16;;;;;;;;;;;29.30;99.90;;;;;;5091620;28;19911;-66
2022/08/02 13:58:42;;;;;;;;;;;29.30;99.90;;;;;;5104956;28;19966;-66
2022/08/02 14:01:07;;;;;;;;;;;29.30;99.90;;;;;;5075762;28;19908;-64
2022/08/02 14:03:33;;;;;;;;;;;29.40;99.90;;;;;;5093161;28;19908;-65
2022/08/02 14:05:58;;;;;;;;;;;29.60;99.90;;;;;;5093359;28;19923;-66
2022/08/02 14:08:24;;;;;;;;;;;29.70;99.90;;;;;;5095898;28;20276;-66
2022/08/02 14:10:50;;;;;;;;;;;29.90;99.90;;;;;;5093442;28;20277;-65
2022/08/02 14:13:16;;;;;;;;;;;30.00;99.90;;;;;;5100617;28;20381;-63
2022/08/02 14:15:42;;;;;;;;;;;30.20;99.90;;;;;;5094124;28;19919;-66
2022/08/02 14:18:08;;;;;;;;;;;30.40;99.90;;;;;;5096214;28;19911;-68
2022/08/02 14:20:33;;;;;;;;;;;30.70;99.90;;;;;;5099151;28;19912;-64